Terminal Aerodrome Forecast
Issued by NWS

Home | Current Version | Previous Version | Text Only | Print | Product List | Glossary On
Versions: 1 2 3 4 5 6 7 8 9 10 11 12 13
326
FTUS43 KMQT 180533
TAFSAW
TAF
KSAW 180533Z 1806/1906 23003KT 1/2SM FZFG BKN002
      TEMPO 1806/1810 1/4SM FZFG
     FM181200 22007KT 2SM BR SCT020
     FM181500 23008KT P6SM SCT030 WS010/27035KT
     FM181900 22008KT P6SM FEW200
     FM190500 22004KT P6SM SCT120=

USA.gov is the U.S. government's official web portal to all federal, state and local government web resources and services.